sensor_id;sensor_type;location;lat;lon;timestamp;pressure;altitude;pressure_sealevel;temperature
72236;BMP280;60146;52.498;13.462;2023-05-15T00:01:24;100969.50;;;15.47
72236;BMP280;60146;52.498;13.462;2023-05-15T00:03:50;100971.53;;;15.41
72236;BMP280;60146;52.498;13.462;2023-05-15T00:06:16;100957.22;;;15.34
72236;BMP280;60146;52.498;13.462;2023-05-15T00:08:41;100958.22;;;15.25
72236;BMP280;60146;52.498;13.462;2023-05-15T00:11:06;100960.84;;;15.16
72236;BMP280;60146;52.498;13.462;2023-05-15T00:13:32;100955.84;;;15.15
72236;BMP280;60146;52.498;13.462;2023-05-15T00:15:57;100952.72;;;15.13
72236;BMP280;60146;52.498;13.462;2023-05-15T00:18:22;100939.84;;;15.12
72236;BMP280;60146;52.498;13.462;2023-05-15T00:20:48;100945.59;;;15.13
72236;BMP280;60146;52.498;13.462;2023-05-15T00:23:13;100951.19;;;15.12
72236;BMP280;60146;52.498;13.462;2023-05-15T00:25:38;100934.38;;;15.08
72236;BMP280;60146;52.498;13.462;2023-05-15T00:28:04;100944.00;;;15.04
72236;BMP280;60146;52.498;13.462;2023-05-15T00:30:29;100940.28;;;15.05
72236;BMP280;60146;52.498;13.462;2023-05-15T00:32:54;100921.13;;;15.00
72236;BMP280;60146;52.498;13.462;2023-05-15T00:35:20;100927.78;;;14.97
72236;BMP280;60146;52.498;13.462;2023-05-15T00:37:45;100927.34;;;14.95
72236;BMP280;60146;52.498;13.462;2023-05-15T00:40:12;100924.69;;;14.95
72236;BMP280;60146;52.498;13.462;2023-05-15T00:42:40;100923.78;;;14.92
72236;BMP280;60146;52.498;13.462;2023-05-15T00:45:08;100914.84;;;14.88
72236;BMP280;60146;52.498;13.462;2023-05-15T00:47:35;100898.56;;;14.86
72236;BMP280;60146;52.498;13.462;2023-05-15T00:50:01;100902.44;;;14.88
72236;BMP280;60146;52.498;13.462;2023-05-15T00:52:28;100897.47;;;14.87
72236;BMP280;60146;52.498;13.462;2023-05-15T00:54:53;100891.44;;;14.86
72236;BMP280;60146;52.498;13.462;2023-05-15T00:57:20;100903.66;;;14.82
72236;BMP280;60146;52.498;13.462;2023-05-15T00:59:46;100893.88;;;14.83
72236;BMP280;60146;52.498;13.462;2023-05-15T01:02:14;100887.06;;;14.82
72236;BMP280;60146;52.498;13.462;2023-05-15T01:04:42;100895.09;;;14.77
72236;BMP280;60146;52.498;13.462;2023-05-15T01:07:07;100888.88;;;14.73
72236;BMP280;60146;52.498;13.462;2023-05-15T01:09:34;100878.78;;;14.75
72236;BMP280;60146;52.498;13.462;2023-05-15T01:12:01;100880.66;;;14.75
72236;BMP280;60146;52.498;13.462;2023-05-15T01:14:26;100871.19;;;14.74
72236;BMP280;60146;52.498;13.462;2023-05-15T01:16:52;100877.88;;;14.79
72236;BMP280;60146;52.498;13.462;2023-05-15T01:19:17;100872.59;;;14.79
72236;BMP280;60146;52.498;13.462;2023-05-15T01:22:37;100878.00;;;14.75
72236;BMP280;60146;52.498;13.462;2023-05-15T01:27:29;100886.75;;;14.62
72236;BMP280;60146;52.498;13.462;2023-05-15T01:30:07;100891.38;;;14.56
72236;BMP280;60146;52.498;13.462;2023-05-15T01:38:12;100891.81;;;14.15
72236;BMP280;60146;52.498;13.462;2023-05-15T01:40:38;100890.47;;;14.05
72236;BMP280;60146;52.498;13.462;2023-05-15T01:43:07;100900.47;;;13.95
72236;BMP280;60146;52.498;13.462;2023-05-15T01:45:36;100895.81;;;13.92
72236;BMP280;60146;52.498;13.462;2023-05-15T01:48:05;100898.06;;;13.85
72236;BMP280;60146;52.498;13.462;2023-05-15T01:50:32;100889.78;;;13.78
72236;BMP280;60146;52.498;13.462;2023-05-15T01:52:59;100884.78;;;13.76
72236;BMP280;60146;52.498;13.462;2023-05-15T01:55:26;100875.03;;;13.77
72236;BMP280;60146;52.498;13.462;2023-05-15T01:57:54;100888.16;;;13.69
72236;BMP280;60146;52.498;13.462;2023-05-15T02:00:21;100876.50;;;13.70
72236;BMP280;60146;52.498;13.462;2023-05-15T02:02:47;100866.19;;;13.60
72236;BMP280;60146;52.498;13.462;2023-05-15T02:05:13;100865.63;;;13.63
72236;BMP280;60146;52.498;13.462;2023-05-15T02:07:40;100863.03;;;13.58
72236;BMP280;60146;52.498;13.462;2023-05-15T02:10:08;100872.34;;;13.56
72236;BMP280;60146;52.498;13.462;2023-05-15T02:12:33;100865.69;;;13.58
72236;BMP280;60146;52.498;13.462;2023-05-15T02:15:02;100861.88;;;13.64
72236;BMP280;60146;52.498;13.462;2023-05-15T02:17:27;100858.56;;;13.72
72236;BMP280;60146;52.498;13.462;2023-05-15T02:19:53;100849.75;;;13.76
72236;BMP280;60146;52.498;13.462;2023-05-15T02:22:19;100848.91;;;13.80
72236;BMP280;60146;52.498;13.462;2023-05-15T02:24:44;100844.72;;;13.79
72236;BMP280;60146;52.498;13.462;2023-05-15T02:27:35;100850.28;;;13.78
72236;BMP280;60146;52.498;13.462;2023-05-15T02:33:39;100862.75;;;13.73
72236;BMP280;60146;52.498;13.462;2023-05-15T02:36:08;100857.00;;;13.71
72236;BMP280;60146;52.498;13.462;2023-05-15T02:38:43;100846.19;;;13.72
72236;BMP280;60146;52.498;13.462;2023-05-15T02:41:09;100843.25;;;13.74
72236;BMP280;60146;52.498;13.462;2023-05-15T02:43:35;100839.22;;;13.76
72236;BMP280;60146;52.498;13.462;2023-05-15T02:46:02;100834.75;;;13.76
72236;BMP280;60146;52.498;13.462;2023-05-15T02:48:29;100835.81;;;13.76
72236;BMP280;60146;52.498;13.462;2023-05-15T02:50:55;100833.41;;;13.79
72236;BMP280;60146;52.498;13.462;2023-05-15T02:53:21;100838.84;;;13.82
72236;BMP280;60146;52.498;13.462;2023-05-15T02:55:47;100828.22;;;13.74
72236;BMP280;60146;52.498;13.462;2023-05-15T02:58:12;100829.31;;;13.73
72236;BMP280;60146;52.498;13.462;2023-05-15T03:00:38;100832.03;;;13.68
72236;BMP280;60146;52.498;13.462;2023-05-15T03:03:03;100827.34;;;13.65
72236;BMP280;60146;52.498;13.462;2023-05-15T03:05:28;100841.91;;;13.63
72236;BMP280;60146;52.498;13.462;2023-05-15T03:07:54;100820.06;;;13.62
72236;BMP280;60146;52.498;13.462;2023-05-15T03:10:19;100818.59;;;13.57
72236;BMP280;60146;52.498;13.462;2023-05-15T03:12:47;100820.91;;;13.58
72236;BMP280;60146;52.498;13.462;2023-05-15T03:15:13;100814.13;;;13.57
72236;BMP280;60146;52.498;13.462;2023-05-15T03:17:38;100798.91;;;13.54
72236;BMP280;60146;52.498;13.462;2023-05-15T03:20:04;100805.25;;;13.53
72236;BMP280;60146;52.498;13.462;2023-05-15T03:22:29;100809.44;;;13.54
72236;BMP280;60146;52.498;13.462;2023-05-15T03:24:55;100802.47;;;13.58
72236;BMP280;60146;52.498;13.462;2023-05-15T03:27:20;100796.75;;;13.56
72236;BMP280;60146;52.498;13.462;2023-05-15T03:29:45;100797.72;;;13.60
72236;BMP280;60146;52.498;13.462;2023-05-15T03:32:13;100795.25;;;13.63
72236;BMP280;60146;52.498;13.462;2023-05-15T03:34:38;100786.78;;;13.66
72236;BMP280;60146;52.498;13.462;2023-05-15T03:37:03;100784.91;;;13.67
72236;BMP280;60146;52.498;13.462;2023-05-15T03:39:29;100788.06;;;13.69
72236;BMP280;60146;52.498;13.462;2023-05-15T03:41:54;100783.25;;;13.71
72236;BMP280;60146;52.498;13.462;2023-05-15T03:44:20;100792.72;;;13.72
72236;BMP280;60146;52.498;13.462;2023-05-15T03:46:45;100781.88;;;13.73
72236;BMP280;60146;52.498;13.462;2023-05-15T03:49:10;100784.69;;;13.76
72236;BMP280;60146;52.498;13.462;2023-05-15T03:51:36;100794.66;;;13.79
72236;BMP280;60146;52.498;13.462;2023-05-15T03:54:01;100786.53;;;13.76
72236;BMP280;60146;52.498;13.462;2023-05-15T03:56:30;100787.69;;;13.83
72236;BMP280;60146;52.498;13.462;2023-05-15T03:58:55;100793.75;;;13.84
72236;BMP280;60146;52.498;13.462;2023-05-15T04:01:20;100793.34;;;13.90
72236;BMP280;60146;52.498;13.462;2023-05-15T04:03:46;100789.50;;;13.96
72236;BMP280;60146;52.498;13.462;2023-05-15T04:06:11;100796.94;;;13.94
72236;BMP280;60146;52.498;13.462;2023-05-15T04:08:36;100783.66;;;13.99
72236;BMP280;60146;52.498;13.462;2023-05-15T04:11:02;100785.50;;;13.98
72236;BMP280;60146;52.498;13.462;2023-05-15T04:13:27;100781.00;;;13.99
72236;BMP280;60146;52.498;13.462;2023-05-15T04:15:52;100770.81;;;14.06
72236;BMP280;60146;52.498;13.462;2023-05-15T04:18:18;100769.16;;;14.10
72236;BMP280;60146;52.498;13.462;2023-05-15T04:20:43;100772.34;;;14.20
72236;BMP280;60146;52.498;13.462;2023-05-15T04:23:08;100771.31;;;14.29
72236;BMP280;60146;52.498;13.462;2023-05-15T04:25:34;100784.34;;;14.34
72236;BMP280;60146;52.498;13.462;2023-05-15T04:27:59;100777.75;;;14.45
72236;BMP280;60146;52.498;13.462;2023-05-15T04:30:25;100783.66;;;14.50
72236;BMP280;60146;52.498;13.462;2023-05-15T04:32:50;100778.28;;;14.55
72236;BMP280;60146;52.498;13.462;2023-05-15T04:35:16;100769.75;;;14.58
72236;BMP280;60146;52.498;13.462;2023-05-15T04:37:42;100778.91;;;14.60
72236;BMP280;60146;52.498;13.462;2023-05-15T04:40:09;100777.09;;;14.69
72236;BMP280;60146;52.498;13.462;2023-05-15T04:42:35;100782.69;;;14.68
72236;BMP280;60146;52.498;13.462;2023-05-15T04:45:01;100771.19;;;14.72
72236;BMP280;60146;52.498;13.462;2023-05-15T04:47:27;100771.41;;;14.75
72236;BMP280;60146;52.498;13.462;2023-05-15T04:49:53;100773.09;;;14.80
72236;BMP280;60146;52.498;13.462;2023-05-15T04:52:18;100769.84;;;14.83
72236;BMP280;60146;52.498;13.462;2023-05-15T04:54:43;100765.19;;;14.88
72236;BMP280;60146;52.498;13.462;2023-05-15T04:57:09;100759.97;;;14.96
72236;BMP280;60146;52.498;13.462;2023-05-15T04:59:34;100762.47;;;15.10
72236;BMP280;60146;52.498;13.462;2023-05-15T05:02:00;100755.84;;;15.20
72236;BMP280;60146;52.498;13.462;2023-05-15T05:04:26;100757.88;;;15.32
72236;BMP280;60146;52.498;13.462;2023-05-15T05:06:51;100757.59;;;15.50
72236;BMP280;60146;52.498;13.462;2023-05-15T05:09:19;100754.00;;;15.62
72236;BMP280;60146;52.498;13.462;2023-05-15T05:11:45;100748.53;;;15.84
72236;BMP280;60146;52.498;13.462;2023-05-15T05:14:12;100746.31;;;16.19
72236;BMP280;60146;52.498;13.462;2023-05-15T05:16:38;100746.41;;;16.39
72236;BMP280;60146;52.498;13.462;2023-05-15T05:19:04;100744.38;;;16.44
72236;BMP280;60146;52.498;13.462;2023-05-15T05:21:30;100739.88;;;16.65
72236;BMP280;60146;52.498;13.462;2023-05-15T05:23:56;100733.34;;;16.70
72236;BMP280;60146;52.498;13.462;2023-05-15T05:26:21;100730.38;;;16.72
72236;BMP280;60146;52.498;13.462;2023-05-15T05:28:47;100729.19;;;16.89
72236;BMP280;60146;52.498;13.462;2023-05-15T05:31:13;100733.00;;;17.00
72236;BMP280;60146;52.498;13.462;2023-05-15T05:33:38;100727.94;;;17.07
72236;BMP280;60146;52.498;13.462;2023-05-15T05:36:04;100727.94;;;17.07
72236;BMP280;60146;52.498;13.462;2023-05-15T05:38:30;100724.69;;;17.10
72236;BMP280;60146;52.498;13.462;2023-05-15T05:40:55;100720.41;;;17.17
72236;BMP280;60146;52.498;13.462;2023-05-15T05:43:20;100715.78;;;17.26
72236;BMP280;60146;52.498;13.462;2023-05-15T05:45:46;100720.47;;;17.29
72236;BMP280;60146;52.498;13.462;2023-05-15T05:48:12;100713.09;;;17.34
72236;BMP280;60146;52.498;13.462;2023-05-15T05:50:38;100714.44;;;17.40
72236;BMP280;60146;52.498;13.462;2023-05-15T05:53:03;100716.66;;;17.38
72236;BMP280;60146;52.498;13.462;2023-05-15T05:55:29;100715.53;;;17.39
72236;BMP280;60146;52.498;13.462;2023-05-15T05:57:54;100707.16;;;17.37
72236;BMP280;60146;52.498;13.462;2023-05-15T06:00:20;100707.94;;;17.38
72236;BMP280;60146;52.498;13.462;2023-05-15T06:02:45;100706.00;;;17.46
72236;BMP280;60146;52.498;13.462;2023-05-15T06:05:11;100703.56;;;17.53
72236;BMP280;60146;52.498;13.462;2023-05-15T06:07:36;100707.38;;;17.64
72236;BMP280;60146;52.498;13.462;2023-05-15T06:10:02;100707.16;;;17.69
72236;BMP280;60146;52.498;13.462;2023-05-15T06:12:28;100703.06;;;17.71
72236;BMP280;60146;52.498;13.462;2023-05-15T06:14:53;100699.78;;;17.74
72236;BMP280;60146;52.498;13.462;2023-05-15T06:17:18;100692.91;;;17.73
72236;BMP280;60146;52.498;13.462;2023-05-15T06:19:44;100702.66;;;17.81
72236;BMP280;60146;52.498;13.462;2023-05-15T06:22:09;100684.78;;;17.90
72236;BMP280;60146;52.498;13.462;2023-05-15T06:24:35;100684.34;;;18.00
72236;BMP280;60146;52.498;13.462;2023-05-15T06:27:00;100677.31;;;18.15
72236;BMP280;60146;52.498;13.462;2023-05-15T06:29:26;100673.56;;;18.40
72236;BMP280;60146;52.498;13.462;2023-05-15T06:31:51;100673.41;;;18.59
72236;BMP280;60146;52.498;13.462;2023-05-15T06:34:17;100669.84;;;18.67
72236;BMP280;60146;52.498;13.462;2023-05-15T06:36:45;100669.00;;;18.90
72236;BMP280;60146;52.498;13.462;2023-05-15T06:39:10;100668.94;;;19.14
72236;BMP280;60146;52.498;13.462;2023-05-15T06:41:36;100663.06;;;19.35
72236;BMP280;60146;52.498;13.462;2023-05-15T06:44:02;100666.09;;;19.49
72236;BMP280;60146;52.498;13.462;2023-05-15T06:46:28;100664.91;;;19.61
72236;BMP280;60146;52.498;13.462;2023-05-15T06:48:53;100659.75;;;19.68
72236;BMP280;60146;52.498;13.462;2023-05-15T06:51:18;100664.25;;;19.94
72236;BMP280;60146;52.498;13.462;2023-05-15T06:53:44;100663.41;;;19.90
72236;BMP280;60146;52.498;13.462;2023-05-15T06:56:09;100659.59;;;19.91
72236;BMP280;60146;52.498;13.462;2023-05-15T06:58:35;100658.59;;;20.11
72236;BMP280;60146;52.498;13.462;2023-05-15T07:01:00;100652.25;;;20.34
72236;BMP280;60146;52.498;13.462;2023-05-15T07:03:28;100659.09;;;20.68
72236;BMP280;60146;52.498;13.462;2023-05-15T07:05:54;100650.00;;;20.88
72236;BMP280;60146;52.498;13.462;2023-05-15T07:08:19;100648.81;;;21.04
72236;BMP280;60146;52.498;13.462;2023-05-15T07:10:44;100642.13;;;21.13
72236;BMP280;60146;52.498;13.462;2023-05-15T07:13:10;100654.94;;;21.26
72236;BMP280;60146;52.498;13.462;2023-05-15T07:15:35;100656.06;;;21.47
72236;BMP280;60146;52.498;13.462;2023-05-15T07:18:00;100649.72;;;21.55
72236;BMP280;60146;52.498;13.462;2023-05-15T07:20:26;100658.63;;;21.62
72236;BMP280;60146;52.498;13.462;2023-05-15T07:22:51;100648.59;;;21.56
72236;BMP280;60146;52.498;13.462;2023-05-15T07:25:16;100650.91;;;21.57
72236;BMP280;60146;52.498;13.462;2023-05-15T07:27:42;100640.72;;;21.41
72236;BMP280;60146;52.498;13.462;2023-05-15T07:30:08;100635.72;;;21.39
72236;BMP280;60146;52.498;13.462;2023-05-15T07:32:33;100631.16;;;21.40
72236;BMP280;60146;52.498;13.462;2023-05-15T07:34:58;100631.84;;;21.34
72236;BMP280;60146;52.498;13.462;2023-05-15T07:37:24;100629.22;;;21.37
72236;BMP280;60146;52.498;13.462;2023-05-15T07:39:49;100632.06;;;21.25
72236;BMP280;60146;52.498;13.462;2023-05-15T07:42:15;100620.34;;;21.11
72236;BMP280;60146;52.498;13.462;2023-05-15T07:44:40;100629.59;;;21.17
72236;BMP280;60146;52.498;13.462;2023-05-15T07:47:05;100618.94;;;21.17
72236;BMP280;60146;52.498;13.462;2023-05-15T07:49:31;100624.16;;;21.10
72236;BMP280;60146;52.498;13.462;2023-05-15T07:51:56;100615.06;;;20.93
72236;BMP280;60146;52.498;13.462;2023-05-15T07:54:22;100618.41;;;20.90
72236;BMP280;60146;52.498;13.462;2023-05-15T07:56:47;100613.66;;;20.80
72236;BMP280;60146;52.498;13.462;2023-05-15T07:59:13;100606.75;;;20.76
72236;BMP280;60146;52.498;13.462;2023-05-15T08:01:38;100614.63;;;20.91
72236;BMP280;60146;52.498;13.462;2023-05-15T08:04:06;100608.81;;;21.04
72236;BMP280;60146;52.498;13.462;2023-05-15T08:06:33;100619.06;;;21.24
72236;BMP280;60146;52.498;13.462;2023-05-15T08:08:59;100604.97;;;21.45
72236;BMP280;60146;52.498;13.462;2023-05-15T08:11:24;100591.34;;;21.50
72236;BMP280;60146;52.498;13.462;2023-05-15T08:13:50;100595.25;;;21.81
72236;BMP280;60146;52.498;13.462;2023-05-15T08:16:15;100597.31;;;21.91
72236;BMP280;60146;52.498;13.462;2023-05-15T08:18:40;100595.97;;;22.04
72236;BMP280;60146;52.498;13.462;2023-05-15T08:21:06;100580.03;;;22.11
72236;BMP280;60146;52.498;13.462;2023-05-15T08:23:31;100584.66;;;22.13
72236;BMP280;60146;52.498;13.462;2023-05-15T08:25:57;100583.59;;;22.18
72236;BMP280;60146;52.498;13.462;2023-05-15T08:28:23;100590.84;;;22.21
72236;BMP280;60146;52.498;13.462;2023-05-15T08:30:48;100580.81;;;22.11
72236;BMP280;60146;52.498;13.462;2023-05-15T08:33:13;100576.59;;;22.10
72236;BMP280;60146;52.498;13.462;2023-05-15T08:35:39;100577.31;;;21.78
72236;BMP280;60146;52.498;13.462;2023-05-15T08:38:04;100579.50;;;21.73
72236;BMP280;60146;52.498;13.462;2023-05-15T08:40:30;100572.97;;;21.45
72236;BMP280;60146;52.498;13.462;2023-05-15T08:42:59;100562.16;;;21.38
72236;BMP280;60146;52.498;13.462;2023-05-15T08:45:25;100570.28;;;21.23
72236;BMP280;60146;52.498;13.462;2023-05-15T08:47:51;100555.88;;;21.28
72236;BMP280;60146;52.498;13.462;2023-05-15T08:50:18;100567.47;;;21.13
72236;BMP280;60146;52.498;13.462;2023-05-15T08:52:45;100552.06;;;21.25
72236;BMP280;60146;52.498;13.462;2023-05-15T08:55:12;100561.06;;;21.18
72236;BMP280;60146;52.498;13.462;2023-05-15T08:57:39;100562.81;;;21.10
72236;BMP280;60146;52.498;13.462;2023-05-15T09:00:06;100557.84;;;21.09
72236;BMP280;60146;52.498;13.462;2023-05-15T09:02:36;100559.28;;;21.03
72236;BMP280;60146;52.498;13.462;2023-05-15T09:05:01;100552.13;;;21.07
72236;BMP280;60146;52.498;13.462;2023-05-15T09:07:29;100551.00;;;21.08
72236;BMP280;60146;52.498;13.462;2023-05-15T09:09:56;100544.06;;;21.03
72236;BMP280;60146;52.498;13.462;2023-05-15T09:12:23;100547.59;;;20.89
72236;BMP280;60146;52.498;13.462;2023-05-15T09:14:49;100538.47;;;20.90
72236;BMP280;60146;52.498;13.462;2023-05-15T09:17:14;100543.41;;;20.88
72236;BMP280;60146;52.498;13.462;2023-05-15T09:19:41;100535.97;;;20.78
72236;BMP280;60146;52.498;13.462;2023-05-15T09:22:18;100535.53;;;20.95
72236;BMP280;60146;52.498;13.462;2023-05-15T09:24:48;100531.41;;;21.00
72236;BMP280;60146;52.498;13.462;2023-05-15T09:27:15;100532.50;;;20.96
72236;BMP280;60146;52.498;13.462;2023-05-15T09:29:41;100518.75;;;20.94
72236;BMP280;60146;52.498;13.462;2023-05-15T09:32:08;100529.16;;;21.02
72236;BMP280;60146;52.498;13.462;2023-05-15T09:34:36;100530.41;;;21.08
72236;BMP280;60146;52.498;13.462;2023-05-15T09:37:03;100534.19;;;21.04
72236;BMP280;60146;52.498;13.462;2023-05-15T09:39:30;100532.50;;;21.18
72236;BMP280;60146;52.498;13.462;2023-05-15T09:42:06;100529.78;;;21.15
72236;BMP280;60146;52.498;13.462;2023-05-15T09:44:32;100522.22;;;21.20
72236;BMP280;60146;52.498;13.462;2023-05-15T09:47:01;100525.78;;;21.27
72236;BMP280;60146;52.498;13.462;2023-05-15T09:49:27;100527.13;;;21.40
72236;BMP280;60146;52.498;13.462;2023-05-15T09:51:54;100528.72;;;21.41
72236;BMP280;60146;52.498;13.462;2023-05-15T09:54:22;100536.41;;;21.49
72236;BMP280;60146;52.498;13.462;2023-05-15T09:56:48;100531.16;;;21.53
72236;BMP280;60146;52.498;13.462;2023-05-15T09:59:14;100535.63;;;21.45
72236;BMP280;60146;52.498;13.462;2023-05-15T10:01:44;100527.09;;;21.62
72236;BMP280;60146;52.498;13.462;2023-05-15T10:04:10;100526.91;;;21.74
72236;BMP280;60146;52.498;13.462;2023-05-15T10:06:46;100527.81;;;21.84
72236;BMP280;60146;52.498;13.462;2023-05-15T10:09:12;100527.03;;;21.84
72236;BMP280;60146;52.498;13.462;2023-05-15T10:11:42;100524.22;;;22.02
72236;BMP280;60146;52.498;13.462;2023-05-15T10:14:10;100523.66;;;22.19
72236;BMP280;60146;52.498;13.462;2023-05-15T10:16:37;100524.53;;;22.26
72236;BMP280;60146;52.498;13.462;2023-05-15T10:19:05;100521.81;;;22.23
72236;BMP280;60146;52.498;13.462;2023-05-15T10:21:38;100523.31;;;22.20
72236;BMP280;60146;52.498;13.462;2023-05-15T10:24:05;100524.44;;;22.19
72236;BMP280;60146;52.498;13.462;2023-05-15T10:26:40;100533.25;;;22.23
72236;BMP280;60146;52.498;13.462;2023-05-15T10:29:11;100529.91;;;22.29
72236;BMP280;60146;52.498;13.462;2023-05-15T10:31:36;100527.53;;;22.21
72236;BMP280;60146;52.498;13.462;2023-05-15T10:34:04;100526.06;;;22.27
72236;BMP280;60146;52.498;13.462;2023-05-15T10:36:34;100523.63;;;22.15
72236;BMP280;60146;52.498;13.462;2023-05-15T10:39:01;100517.38;;;22.05
72236;BMP280;60146;52.498;13.462;2023-05-15T10:41:35;100511.66;;;22.03
72236;BMP280;60146;52.498;13.462;2023-05-15T10:44:00;100510.88;;;21.74
72236;BMP280;60146;52.498;13.462;2023-05-15T10:46:28;100507.09;;;21.74
72236;BMP280;60146;52.498;13.462;2023-05-15T10:48:53;100498.00;;;21.79
72236;BMP280;60146;52.498;13.462;2023-05-15T10:51:27;100493.84;;;21.81
72236;BMP280;60146;52.498;13.462;2023-05-15T10:53:53;100488.59;;;21.88
72236;BMP280;60146;52.498;13.462;2023-05-15T10:56:19;100492.22;;;22.06
72236;BMP280;60146;52.498;13.462;2023-05-15T10:58:49;100485.13;;;22.16
72236;BMP280;60146;52.498;13.462;2023-05-15T11:01:29;100488.00;;;22.37
72236;BMP280;60146;52.498;13.462;2023-05-15T11:06:40;100472.28;;;22.25
72236;BMP280;60146;52.498;13.462;2023-05-15T11:14:15;100464.88;;;22.93
72236;BMP280;60146;52.498;13.462;2023-05-15T11:24:30;100466.06;;;23.58
72236;BMP280;60146;52.498;13.462;2023-05-15T11:27:03;100461.16;;;23.74
72236;BMP280;60146;52.498;13.462;2023-05-15T11:29:28;100457.81;;;23.97
72236;BMP280;60146;52.498;13.462;2023-05-15T11:31:54;100452.50;;;24.04
72236;BMP280;60146;52.498;13.462;2023-05-15T11:34:40;100455.25;;;24.52
72236;BMP280;60146;52.498;13.462;2023-05-15T11:37:11;100448.94;;;25.43
72236;BMP280;60146;52.498;13.462;2023-05-15T11:39:43;100451.53;;;27.45
72236;BMP280;60146;52.498;13.462;2023-05-15T11:42:11;100442.50;;;29.15
72236;BMP280;60146;52.498;13.462;2023-05-15T11:44:38;100432.81;;;29.51
72236;BMP280;60146;52.498;13.462;2023-05-15T11:47:03;100425.75;;;29.23
72236;BMP280;60146;52.498;13.462;2023-05-15T11:49:32;100436.00;;;28.93
72236;BMP280;60146;52.498;13.462;2023-05-15T11:51:58;100424.25;;;29.37
72236;BMP280;60146;52.498;13.462;2023-05-15T11:54:23;100421.72;;;30.83
72236;BMP280;60146;52.498;13.462;2023-05-15T11:56:49;100424.53;;;32.46
72236;BMP280;60146;52.498;13.462;2023-05-15T11:59:14;100416.72;;;34.01
72236;BMP280;60146;52.498;13.462;2023-05-15T12:01:44;100410.81;;;34.46
72236;BMP280;60146;52.498;13.462;2023-05-15T12:04:16;100408.84;;;35.96
72236;BMP280;60146;52.498;13.462;2023-05-15T12:06:43;100410.91;;;36.99
72236;BMP280;60146;52.498;13.462;2023-05-15T12:09:15;100411.78;;;36.77
72236;BMP280;60146;52.498;13.462;2023-05-15T12:11:51;100403.97;;;37.37
72236;BMP280;60146;52.498;13.462;2023-05-15T12:14:17;100404.09;;;37.67
72236;BMP280;60146;52.498;13.462;2023-05-15T12:16:42;100397.31;;;37.24
72236;BMP280;60146;52.498;13.462;2023-05-15T12:19:07;100402.25;;;37.59
72236;BMP280;60146;52.498;13.462;2023-05-15T12:21:34;100388.50;;;38.22
72236;BMP280;60146;52.498;13.462;2023-05-15T12:23:59;100383.84;;;38.03
72236;BMP280;60146;52.498;13.462;2023-05-15T12:26:26;100383.44;;;37.66
72236;BMP280;60146;52.498;13.462;2023-05-15T12:28:52;100385.06;;;37.00
72236;BMP280;60146;52.498;13.462;2023-05-15T12:31:18;100389.16;;;36.06
72236;BMP280;60146;52.498;13.462;2023-05-15T12:33:44;100381.28;;;36.97
72236;BMP280;60146;52.498;13.462;2023-05-15T12:36:10;100375.22;;;38.45
72236;BMP280;60146;52.498;13.462;2023-05-15T12:38:35;100376.28;;;37.93
72236;BMP280;60146;52.498;13.462;2023-05-15T12:41:01;100384.75;;;36.50
72236;BMP280;60146;52.498;13.462;2023-05-15T12:43:27;100378.22;;;37.10
72236;BMP280;60146;52.498;13.462;2023-05-15T12:45:54;100368.72;;;37.88
72236;BMP280;60146;52.498;13.462;2023-05-15T12:48:20;100362.72;;;38.74
72236;BMP280;60146;52.498;13.462;2023-05-15T12:50:46;100368.63;;;39.81
72236;BMP280;60146;52.498;13.462;2023-05-15T12:53:14;100359.94;;;39.98
72236;BMP280;60146;52.498;13.462;2023-05-15T12:55:40;100362.09;;;39.57
72236;BMP280;60146;52.498;13.462;2023-05-15T12:58:09;100360.63;;;39.83
72236;BMP280;60146;52.498;13.462;2023-05-15T13:00:40;100355.44;;;39.12
72236;BMP280;60146;52.498;13.462;2023-05-15T13:03:08;100353.03;;;38.13
72236;BMP280;60146;52.498;13.462;2023-05-15T13:05:35;100343.91;;;38.27
72236;BMP280;60146;52.498;13.462;2023-05-15T13:08:02;100355.22;;;37.60
72236;BMP280;60146;52.498;13.462;2023-05-15T13:10:31;100353.34;;;36.74
72236;BMP280;60146;52.498;13.462;2023-05-15T13:12:58;100347.03;;;37.21
72236;BMP280;60146;52.498;13.462;2023-05-15T13:17:52;100335.81;;;34.68
72236;BMP280;60146;52.498;13.462;2023-05-15T13:20:21;100339.44;;;33.72
72236;BMP280;60146;52.498;13.462;2023-05-15T13:22:46;100342.25;;;32.87
72236;BMP280;60146;52.498;13.462;2023-05-15T13:25:16;100340.13;;;31.66
72236;BMP280;60146;52.498;13.462;2023-05-15T13:27:41;100338.50;;;30.71
72236;BMP280;60146;52.498;13.462;2023-05-15T13:30:07;100339.38;;;31.17
72236;BMP280;60146;52.498;13.462;2023-05-15T13:32:32;100346.19;;;32.03
72236;BMP280;60146;52.498;13.462;2023-05-15T13:34:58;100354.09;;;29.65
72236;BMP280;60146;52.498;13.462;2023-05-15T13:37:23;100358.88;;;28.92
72236;BMP280;60146;52.498;13.462;2023-05-15T13:39:49;100375.50;;;27.31
72236;BMP280;60146;52.498;13.462;2023-05-15T13:42:14;100369.19;;;26.00
72236;BMP280;60146;52.498;13.462;2023-05-15T13:44:40;100392.06;;;24.51
72236;BMP280;60146;52.498;13.462;2023-05-15T13:47:05;100392.69;;;23.73
72236;BMP280;60146;52.498;13.462;2023-05-15T13:49:30;100391.06;;;22.79
72236;BMP280;60146;52.498;13.462;2023-05-15T13:51:56;100402.78;;;22.22
72236;BMP280;60146;52.498;13.462;2023-05-15T13:54:21;100415.91;;;22.05
72236;BMP280;60146;52.498;13.462;2023-05-15T13:56:47;100421.94;;;21.66
72236;BMP280;60146;52.498;13.462;2023-05-15T13:59:12;100432.94;;;21.07
72236;BMP280;60146;52.498;13.462;2023-05-15T14:01:37;100446.03;;;20.50
72236;BMP280;60146;52.498;13.462;2023-05-15T14:04:03;100456.16;;;20.45
72236;BMP280;60146;52.498;13.462;2023-05-15T14:06:29;100461.84;;;20.43
72236;BMP280;60146;52.498;13.462;2023-05-15T14:08:55;100468.50;;;20.74
72236;BMP280;60146;52.498;13.462;2023-05-15T14:11:20;100481.38;;;20.69